createdAt,value
2023-01-13T00:01:16.642Z,9.09
2023-01-13T00:03:44.185Z,9.07
2023-01-13T00:06:19.254Z,9.04
2023-01-13T00:08:50.060Z,9.02
2023-01-13T00:11:17.862Z,9.00
2023-01-13T00:13:44.869Z,8.98
2023-01-13T00:16:12.627Z,8.93
2023-01-13T00:18:39.232Z,8.87
2023-01-13T00:21:08.750Z,8.82
2023-01-13T00:23:35.924Z,8.76
2023-01-13T00:26:06.941Z,8.70
2023-01-13T00:28:33.992Z,8.62
2023-01-13T00:31:06.566Z,8.58
2023-01-13T00:33:33.535Z,8.53
2023-01-13T00:36:01.538Z,8.47
2023-01-13T00:38:31.394Z,8.43
2023-01-13T00:41:09.567Z,8.36
2023-01-13T00:43:38.989Z,8.34
2023-01-13T00:46:07.876Z,8.32
2023-01-13T00:48:34.995Z,8.32
2023-01-13T00:51:01.429Z,8.27
2023-01-13T00:53:28.510Z,8.24
2023-01-13T00:56:03.325Z,8.21
2023-01-13T00:58:32.406Z,8.18
2023-01-13T01:01:07.027Z,8.16
2023-01-13T01:03:34.913Z,8.13
2023-01-13T01:06:07.811Z,8.11
2023-01-13T01:08:35.790Z,8.09
2023-01-13T01:11:10.574Z,8.09
2023-01-13T01:13:37.736Z,8.06
2023-01-13T01:16:07.513Z,8.04
2023-01-13T01:18:35.686Z,8.04
2023-01-13T01:21:03.011Z,8.01
2023-01-13T01:23:31.090Z,8.00
2023-01-13T01:26:02.536Z,7.96
2023-01-13T01:28:29.002Z,7.95
2023-01-13T01:30:55.685Z,7.93
2023-01-13T01:33:22.450Z,7.93
2023-01-13T01:35:49.212Z,7.92
2023-01-13T01:38:16.191Z,7.90
2023-01-13T01:40:42.891Z,7.89
2023-01-13T01:43:36.531Z,7.89
2023-01-13T01:46:03.053Z,7.85
2023-01-13T01:48:35.007Z,7.84
2023-01-13T01:51:02.560Z,7.79
2023-01-13T01:53:31.472Z,7.74
2023-01-13T01:55:59.914Z,7.70
2023-01-13T01:58:37.565Z,7.68
2023-01-13T02:01:04.949Z,7.64
2023-01-13T02:03:31.620Z,7.59
2023-01-13T02:05:58.055Z,7.55
2023-01-13T02:08:25.101Z,7.51
2023-01-13T02:10:53.561Z,7.45
2023-01-13T02:13:22.405Z,7.42
2023-01-13T02:15:58.450Z,7.40
2023-01-13T02:18:52.441Z,7.35
2023-01-13T02:21:52.019Z,7.32
2023-01-13T02:24:55.759Z,7.30
2023-01-13T02:27:34.881Z,7.27
2023-01-13T02:30:23.472Z,7.24
2023-01-13T02:33:13.851Z,7.22
2023-01-13T02:35:51.180Z,7.22
2023-01-13T02:38:23.881Z,7.18
2023-01-13T02:41:19.964Z,7.15
2023-01-13T02:44:08.202Z,7.13
2023-01-13T02:46:41.337Z,7.11
2023-01-13T02:49:13.752Z,7.10
2023-01-13T02:51:42.147Z,7.07
2023-01-13T02:54:18.099Z,7.05
2023-01-13T02:56:48.550Z,7.03
2023-01-13T02:59:15.670Z,6.99
2023-01-13T03:01:42.746Z,6.97
2023-01-13T03:04:46.983Z,6.95
2023-01-13T03:07:29.352Z,6.93
2023-01-13T03:10:08.133Z,6.91
2023-01-13T03:12:58.038Z,6.92
2023-01-13T03:15:48.834Z,6.90
2023-01-13T03:18:37.301Z,6.88
2023-01-13T03:21:27.257Z,6.84
2023-01-13T03:24:30.772Z,6.81
2023-01-13T03:27:03.882Z,6.77
2023-01-13T03:29:36.996Z,6.73
2023-01-13T03:32:24.910Z,6.75
2023-01-13T03:35:16.379Z,6.74
2023-01-13T03:37:47.728Z,6.74
2023-01-13T03:40:18.662Z,6.73
2023-01-13T03:43:09.995Z,6.70
2023-01-13T03:45:41.531Z,6.69
2023-01-13T03:48:16.918Z,6.67
2023-01-13T03:50:52.726Z,6.66
2023-01-13T03:53:30.090Z,6.63
2023-01-13T03:56:07.811Z,6.62
2023-01-13T03:58:41.463Z,6.61
2023-01-13T04:01:19.056Z,6.59
2023-01-13T04:04:01.463Z,6.58
2023-01-13T04:06:33.423Z,6.56
2023-01-13T04:09:12.018Z,6.53
2023-01-13T04:11:44.569Z,6.53
2023-01-13T04:14:13.881Z,6.52
2023-01-13T04:16:41.398Z,6.53
2023-01-13T04:19:07.895Z,6.53
2023-01-13T04:21:35.585Z,6.48
2023-01-13T04:24:02.387Z,6.48
2023-01-13T04:26:28.984Z,6.44
2023-01-13T04:28:56.282Z,6.40
2023-01-13T04:31:23.068Z,6.37
2023-01-13T04:33:49.805Z,6.33
2023-01-13T04:36:16.589Z,6.30
2023-01-13T04:38:43.053Z,6.27
2023-01-13T04:41:09.787Z,6.25
2023-01-13T04:43:36.691Z,6.25
2023-01-13T04:46:03.169Z,6.21
2023-01-13T04:48:29.904Z,6.20
2023-01-13T04:50:56.461Z,6.15
2023-01-13T04:53:23.021Z,6.13
2023-01-13T04:55:50.114Z,6.09
2023-01-13T04:58:16.722Z,6.06
2023-01-13T05:00:43.456Z,6.03
2023-01-13T05:03:10.235Z,6.02
2023-01-13T05:05:37.840Z,5.99
2023-01-13T05:08:05.259Z,5.98
2023-01-13T05:10:31.732Z,5.95
2023-01-13T05:13:16.874Z,5.96
2023-01-13T05:16:16.240Z,5.94
2023-01-13T05:18:42.840Z,5.92
2023-01-13T05:21:29.491Z,5.90
2023-01-13T05:24:19.576Z,5.90
2023-01-13T05:26:46.084Z,5.86
2023-01-13T05:29:12.547Z,5.88
2023-01-13T05:31:38.990Z,5.88
2023-01-13T05:34:05.845Z,5.86
2023-01-13T05:36:32.444Z,5.83
2023-01-13T05:38:58.978Z,5.82
2023-01-13T05:41:44.497Z,5.82
2023-01-13T05:44:11.262Z,5.82
2023-01-13T05:46:37.991Z,5.82
2023-01-13T05:49:05.565Z,5.80
2023-01-13T05:51:32.065Z,5.80
2023-01-13T05:53:59.239Z,5.79
2023-01-13T05:56:26.422Z,5.78
2023-01-13T05:58:52.899Z,5.78
2023-01-13T06:01:19.468Z,5.80
2023-01-13T06:03:46.543Z,5.82
2023-01-13T06:06:12.970Z,5.82
2023-01-13T06:08:40.216Z,5.80
2023-01-13T06:11:07.031Z,5.80
2023-01-13T06:13:33.517Z,5.81
2023-01-13T06:16:00.877Z,5.82
2023-01-13T06:18:28.187Z,5.81
2023-01-13T06:20:54.740Z,5.81
2023-01-13T06:23:23.801Z,5.82
2023-01-13T06:26:13.511Z,5.84
2023-01-13T06:28:40.174Z,5.83
2023-01-13T06:31:08.617Z,5.86
2023-01-13T06:33:44.792Z,5.87
2023-01-13T06:36:19.806Z,5.88
2023-01-13T06:38:49.358Z,5.89
2023-01-13T06:41:16.733Z,5.90
2023-01-13T06:43:43.266Z,5.91
2023-01-13T06:46:10.048Z,5.93
2023-01-13T06:48:36.694Z,5.92
2023-01-13T06:51:04.997Z,5.91
2023-01-13T06:53:31.604Z,5.91
2023-01-13T06:55:58.046Z,5.91
2023-01-13T06:58:24.823Z,5.89
2023-01-13T07:00:51.749Z,5.89
2023-01-13T07:03:20.086Z,5.88
2023-01-13T07:05:54.727Z,5.87
2023-01-13T07:08:22.849Z,5.85
2023-01-13T07:10:49.437Z,5.82
2023-01-13T07:13:34.793Z,5.79
2023-01-13T07:16:05.078Z,5.79
2023-01-13T07:18:33.183Z,5.79
2023-01-13T07:21:04.747Z,5.79
2023-01-13T07:23:33.886Z,5.79
2023-01-13T07:26:01.660Z,5.81
2023-01-13T07:28:29.738Z,5.81
2023-01-13T07:30:56.895Z,5.85
2023-01-13T07:33:24.289Z,5.88
2023-01-13T07:35:58.612Z,5.91
2023-01-13T07:38:25.825Z,5.93
2023-01-13T07:40:52.627Z,5.94
2023-01-13T07:43:34.968Z,5.94
2023-01-13T07:46:06.704Z,5.93
2023-01-13T07:48:37.403Z,5.91
2023-01-13T07:51:06.808Z,5.89
2023-01-13T07:53:34.678Z,5.89
2023-01-13T07:56:04.836Z,5.86
2023-01-13T07:58:33.413Z,5.86
2023-01-13T08:01:00.381Z,5.86
2023-01-13T08:03:27.180Z,5.84
2023-01-13T08:05:53.563Z,5.81
2023-01-13T08:08:22.321Z,5.83
2023-01-13T08:10:48.754Z,5.80
2023-01-13T08:13:18.166Z,5.82
2023-01-13T08:15:46.020Z,5.84
2023-01-13T08:18:13.120Z,5.84
2023-01-13T08:20:39.976Z,5.87
2023-01-13T08:23:07.444Z,5.91
2023-01-13T08:25:34.622Z,5.95
2023-01-13T08:28:01.331Z,5.99
2023-01-13T08:30:27.953Z,6.05
2023-01-13T08:32:54.878Z,6.10
2023-01-13T08:35:22.571Z,6.13
2023-01-13T08:37:51.107Z,6.18
2023-01-13T08:40:19.021Z,6.24
2023-01-13T08:42:48.492Z,6.26
2023-01-13T08:45:18.053Z,6.28
2023-01-13T08:47:44.783Z,6.30
2023-01-13T08:50:11.556Z,6.35
2023-01-13T08:52:38.173Z,6.38
2023-01-13T08:55:05.160Z,6.42
2023-01-13T08:57:31.681Z,6.43
2023-01-13T08:59:58.202Z,6.46
2023-01-13T09:02:25.463Z,6.52
2023-01-13T09:04:52.596Z,6.56
2023-01-13T09:07:19.615Z,6.58
2023-01-13T09:09:46.321Z,6.60
2023-01-13T09:12:34.545Z,6.60
2023-01-13T09:15:01.719Z,6.62
2023-01-13T09:17:28.171Z,6.58
2023-01-13T09:19:54.760Z,6.58
2023-01-13T09:22:21.807Z,6.58
2023-01-13T09:24:48.175Z,6.58
2023-01-13T09:27:15.545Z,6.61
2023-01-13T09:29:42.400Z,6.66
2023-01-13T09:32:12.681Z,6.70
2023-01-13T09:34:58.086Z,6.75
2023-01-13T09:37:24.886Z,6.80
2023-01-13T09:39:51.419Z,6.82
2023-01-13T09:43:00.795Z,6.87
2023-01-13T09:45:42.369Z,6.91
2023-01-13T09:48:27.993Z,6.94
2023-01-13T09:51:10.061Z,6.95
2023-01-13T09:53:48.135Z,6.95
2023-01-13T09:56:14.646Z,6.94
2023-01-13T09:58:41.943Z,6.95
2023-01-13T10:01:23.892Z,6.95
2023-01-13T10:03:50.934Z,6.94
2023-01-13T10:06:23.346Z,6.94
2023-01-13T10:08:51.036Z,6.95
2023-01-13T10:11:37.441Z,6.97
2023-01-13T10:14:16.539Z,6.97
2023-01-13T10:17:20.869Z,6.98
2023-01-13T10:20:22.497Z,7.00
2023-01-13T10:23:00.097Z,7.03
2023-01-13T10:25:41.967Z,7.04
2023-01-13T10:28:13.058Z,7.07
2023-01-13T10:30:42.982Z,7.07
2023-01-13T10:33:10.964Z,7.08
2023-01-13T10:36:01.601Z,7.11
2023-01-13T10:38:31.031Z,7.12
2023-01-13T10:41:00.123Z,7.14
2023-01-13T10:43:28.382Z,7.18
2023-01-13T10:46:00.432Z,7.23
2023-01-13T10:48:33.021Z,7.26
2023-01-13T10:51:10.779Z,7.28
2023-01-13T10:53:55.342Z,7.29
2023-01-13T10:56:24.043Z,7.32
2023-01-13T10:58:50.826Z,7.34
2023-01-13T11:01:26.443Z,7.36
2023-01-13T11:03:55.048Z,7.37
2023-01-13T11:06:28.778Z,7.35
2023-01-13T11:09:03.078Z,7.33
2023-01-13T11:11:57.193Z,7.33
2023-01-13T11:14:41.867Z,7.37
2023-01-13T11:17:46.309Z,7.42
2023-01-13T11:20:31.000Z,7.45
2023-01-13T11:22:59.969Z,7.49
2023-01-13T11:25:41.833Z,7.53
2023-01-13T11:28:18.863Z,7.62
2023-01-13T11:30:50.683Z,7.67
2023-01-13T11:33:30.656Z,7.72
2023-01-13T11:36:12.199Z,7.78
2023-01-13T11:38:54.452Z,7.81
2023-01-13T11:41:44.088Z,7.85
2023-01-13T11:44:16.585Z,7.85
2023-01-13T11:46:43.206Z,7.85
2023-01-13T11:49:28.201Z,7.84
2023-01-13T11:52:14.552Z,7.79
2023-01-13T11:55:02.512Z,7.74
2023-01-13T11:57:47.202Z,7.66
2023-01-13T12:00:22.167Z,7.63
2023-01-13T12:03:08.434Z,7.55
2023-01-13T12:05:44.634Z,7.52
2023-01-13T12:08:20.295Z,7.46
2023-01-13T12:11:05.298Z,7.43
2023-01-13T12:13:56.573Z,7.40
2023-01-13T12:16:31.734Z,7.33
2023-01-13T12:19:10.642Z,7.29
2023-01-13T12:22:14.780Z,7.29
2023-01-13T12:24:58.170Z,7.27
2023-01-13T12:27:43.083Z,7.27
2023-01-13T12:30:22.412Z,7.29
2023-01-13T12:32:50.789Z,7.27
2023-01-13T12:35:22.452Z,7.27
2023-01-13T12:38:03.592Z,7.27
2023-01-13T12:40:36.333Z,7.24
2023-01-13T12:43:35.213Z,7.22
2023-01-13T12:46:21.113Z,7.18
2023-01-13T12:49:02.680Z,7.15
2023-01-13T12:51:33.334Z,7.09
2023-01-13T12:54:02.304Z,7.06
2023-01-13T12:56:44.437Z,7.01
2023-01-13T12:59:17.358Z,6.99
2023-01-13T13:01:45.994Z,6.96
2023-01-13T13:04:17.012Z,6.92
2023-01-13T13:07:12.405Z,6.90
2023-01-13T13:09:52.236Z,6.89
2023-01-13T13:12:49.469Z,6.88
2023-01-13T13:15:24.845Z,6.87
2023-01-13T13:18:20.848Z,6.85
2023-01-13T13:21:08.787Z,6.82
2023-01-13T13:23:57.063Z,6.82
2023-01-13T13:26:42.454Z,6.83
2023-01-13T13:29:28.609Z,6.81
2023-01-13T13:31:57.814Z,6.80
2023-01-13T13:34:38.066Z,6.81
2023-01-13T13:37:26.121Z,6.83
2023-01-13T13:40:12.317Z,6.85
2023-01-13T13:43:13.000Z,6.83
2023-01-13T13:46:09.557Z,6.83
2023-01-13T13:48:37.093Z,6.83
2023-01-13T13:51:38.415Z,6.84
2023-01-13T13:54:05.964Z,6.86
2023-01-13T13:56:38.289Z,6.88
2023-01-13T13:59:04.848Z,6.89
2023-01-13T14:01:37.719Z,6.88
2023-01-13T14:04:15.577Z,6.91
2023-01-13T14:07:00.813Z,6.91
2023-01-13T14:09:29.380Z,6.89
2023-01-13T14:12:02.199Z,6.89
2023-01-13T14:14:29.631Z,6.89
2023-01-13T14:16:56.570Z,6.90
2023-01-13T14:19:36.748Z,6.93
2023-01-13T14:22:04.994Z,6.92
2023-01-13T14:24:32.323Z,6.93
2023-01-13T14:27:16.855Z,6.94
2023-01-13T14:29:44.670Z,6.95
2023-01-13T14:32:18.330Z,6.95
2023-01-13T14:34:45.713Z,6.96
2023-01-13T14:37:23.181Z,6.97
2023-01-13T14:39:49.770Z,6.97
2023-01-13T14:42:17.502Z,6.93
2023-01-13T14:44:50.282Z,6.89
2023-01-13T14:47:20.737Z,6.87
2023-01-13T14:50:16.268Z,6.83
2023-01-13T14:52:51.142Z,6.81
2023-01-13T14:55:22.375Z,6.80
2023-01-13T14:57:49.589Z,6.79
2023-01-13T15:00:24.820Z,6.77
2023-01-13T15:02:57.400Z,6.64
2023-01-13T15:05:27.061Z,6.56
2023-01-13T15:07:55.016Z,6.45
2023-01-13T15:10:35.066Z,6.34
2023-01-13T15:13:05.573Z,6.25
2023-01-13T15:15:35.802Z,6.23
2023-01-13T15:18:12.244Z,6.21
2023-01-13T15:20:40.461Z,6.18
2023-01-13T15:23:07.090Z,6.15
2023-01-13T15:25:39.549Z,6.14
2023-01-13T15:28:13.562Z,6.12
2023-01-13T15:30:40.099Z,6.10
2023-01-13T15:33:12.273Z,6.10
2023-01-13T15:35:42.749Z,6.12
2023-01-13T15:38:11.634Z,6.12
2023-01-13T15:40:38.384Z,6.10
2023-01-13T15:43:23.887Z,6.12
2023-01-13T15:46:09.796Z,6.12
2023-01-13T15:48:36.436Z,6.12
2023-01-13T15:51:04.134Z,6.12
2023-01-13T15:53:31.124Z,6.13
2023-01-13T15:55:59.905Z,6.12
2023-01-13T15:58:29.664Z,6.12
2023-01-13T16:00:56.354Z,6.11
2023-01-13T16:03:23.195Z,6.10
2023-01-13T16:05:49.769Z,6.09
2023-01-13T16:08:17.566Z,6.07
2023-01-13T16:10:47.429Z,6.06
2023-01-13T16:13:15.456Z,6.09
2023-01-13T16:15:45.660Z,6.10
2023-01-13T16:18:26.039Z,6.12
2023-01-13T16:20:53.550Z,6.13
2023-01-13T16:23:22.677Z,6.13
2023-01-13T16:25:50.389Z,6.13
2023-01-13T16:28:22.878Z,6.12
2023-01-13T16:30:49.482Z,6.12
2023-01-13T16:33:15.981Z,6.09
2023-01-13T16:36:08.956Z,6.10
2023-01-13T16:38:29.759Z,6.07
2023-01-13T16:40:57.032Z,6.07
2023-01-13T16:43:23.456Z,6.07
2023-01-13T16:45:50.031Z,6.04
2023-01-13T16:48:22.895Z,6.02
2023-01-13T16:50:49.547Z,6.01
2023-01-13T16:53:16.201Z,5.99
2023-01-13T16:55:43.279Z,5.99
2023-01-13T16:58:17.090Z,5.98
2023-01-13T17:00:46.690Z,5.97
2023-01-13T17:03:14.595Z,5.98
2023-01-13T17:05:43.185Z,5.98
2023-01-13T17:08:18.102Z,5.99
2023-01-13T17:10:45.496Z,5.98
2023-01-13T17:13:16.281Z,5.99
2023-01-13T17:15:44.483Z,5.98
2023-01-13T17:18:13.595Z,5.98
2023-01-13T17:20:40.471Z,5.99
2023-01-13T17:23:06.997Z,6.02
2023-01-13T17:25:33.559Z,6.01
2023-01-13T17:28:00.125Z,6.01
2023-01-13T17:30:27.287Z,6.02
2023-01-13T17:32:53.745Z,6.02
2023-01-13T17:35:24.627Z,6.02
2023-01-13T17:37:52.819Z,6.02
2023-01-13T17:40:19.677Z,6.04
2023-01-13T17:42:46.219Z,6.05
2023-01-13T17:45:12.858Z,6.05
2023-01-13T17:47:39.595Z,6.06
2023-01-13T17:50:06.518Z,6.06
2023-01-13T17:52:33.770Z,6.06
2023-01-13T17:55:00.547Z,6.07
2023-01-13T17:57:27.121Z,6.05
2023-01-13T17:59:53.671Z,6.04
2023-01-13T18:02:20.374Z,6.04
2023-01-13T18:04:47.084Z,6.04
2023-01-13T18:07:13.708Z,6.05
2023-01-13T18:09:40.393Z,6.04
2023-01-13T18:12:07.199Z,6.06
2023-01-13T18:14:34.705Z,6.07
2023-01-13T18:17:01.518Z,6.07
2023-01-13T18:19:46.764Z,6.06
2023-01-13T18:22:32.756Z,6.05
2023-01-13T18:25:18.141Z,6.04
2023-01-13T18:27:44.657Z,6.05
2023-01-13T18:30:12.415Z,6.04
2023-01-13T18:32:39.204Z,6.05
2023-01-13T18:35:10.263Z,6.07
2023-01-13T18:37:40.891Z,6.06
2023-01-13T18:40:09.703Z,6.07
2023-01-13T18:42:53.917Z,6.06
2023-01-13T18:45:24.485Z,6.05
2023-01-13T18:47:51.645Z,6.05
2023-01-13T18:50:18.693Z,6.03
2023-01-13T18:52:45.552Z,6.02
2023-01-13T18:55:12.181Z,6.04
2023-01-13T18:57:42.080Z,6.00
2023-01-13T19:00:12.248Z,6.00
2023-01-13T19:02:38.926Z,5.98
2023-01-13T19:05:06.253Z,5.97
2023-01-13T19:07:35.534Z,5.98
2023-01-13T19:10:04.538Z,5.97
2023-01-13T19:12:31.257Z,5.96
2023-01-13T19:14:58.385Z,5.96
2023-01-13T19:17:27.074Z,5.95
2023-01-13T19:19:55.841Z,5.96
2023-01-13T19:22:32.586Z,5.97
2023-01-13T19:25:00.378Z,5.97
2023-01-13T19:27:27.647Z,5.95
2023-01-13T19:29:57.412Z,5.97
2023-01-13T19:32:24.854Z,5.95
2023-01-13T19:34:51.648Z,5.94
2023-01-13T19:37:19.435Z,5.95
2023-01-13T19:39:46.404Z,5.95
2023-01-13T19:42:32.255Z,5.97
2023-01-13T19:45:17.906Z,5.97
2023-01-13T19:47:45.830Z,5.98
2023-01-13T19:50:13.974Z,5.98
2023-01-13T19:52:41.888Z,5.99
2023-01-13T19:55:09.808Z,6.02
2023-01-13T19:57:37.386Z,6.01
2023-01-13T20:00:06.436Z,6.00
2023-01-13T20:02:44.833Z,6.03
2023-01-13T20:05:12.709Z,6.03
2023-01-13T20:07:39.756Z,6.05
2023-01-13T20:10:06.564Z,6.03
2023-01-13T20:12:33.004Z,6.05
2023-01-13T20:14:59.733Z,6.05
2023-01-13T20:17:26.373Z,6.06
2023-01-13T20:19:53.311Z,6.04
2023-01-13T20:22:20.177Z,6.05
2023-01-13T20:24:46.739Z,6.05
2023-01-13T20:27:13.530Z,6.05
2023-01-13T20:29:40.036Z,6.04
2023-01-13T20:32:06.604Z,6.03
2023-01-13T20:34:33.437Z,6.03
2023-01-13T20:37:00.421Z,6.05
2023-01-13T20:39:26.956Z,6.05
2023-01-13T20:42:12.835Z,6.07
2023-01-13T20:44:39.543Z,6.10
2023-01-13T20:47:07.087Z,6.11
2023-01-13T20:49:35.970Z,6.11
2023-01-13T20:52:08.957Z,6.11
2023-01-13T20:54:37.023Z,6.12
2023-01-13T20:57:05.103Z,6.13
2023-01-13T20:59:31.648Z,6.12
2023-01-13T21:01:58.135Z,6.13
2023-01-13T21:04:24.790Z,6.13
2023-01-13T21:06:52.206Z,6.13
2023-01-13T21:09:19.031Z,6.12
2023-01-13T21:12:04.215Z,6.13
2023-01-13T21:14:49.760Z,6.11
2023-01-13T21:17:34.962Z,6.12
2023-01-13T21:20:04.148Z,6.11
2023-01-13T21:22:31.052Z,6.11
2023-01-13T21:24:58.446Z,6.10
2023-01-13T21:27:26.003Z,6.11
2023-01-13T21:29:52.552Z,6.10
2023-01-13T21:32:19.210Z,6.08
2023-01-13T21:34:46.111Z,6.06
2023-01-13T21:37:14.906Z,6.05
2023-01-13T21:39:42.435Z,6.05
2023-01-13T21:42:33.558Z,6.04
2023-01-13T21:45:18.769Z,6.04
2023-01-13T21:47:48.509Z,6.04
2023-01-13T21:50:27.194Z,6.02
2023-01-13T21:52:54.798Z,6.03
2023-01-13T21:55:25.397Z,6.04
2023-01-13T21:58:07.211Z,6.03
2023-01-13T22:00:34.706Z,6.05
2023-01-13T22:03:06.381Z,6.06
2023-01-13T22:05:33.443Z,6.05
2023-01-13T22:07:59.911Z,6.05
2023-01-13T22:10:30.197Z,6.06
2023-01-13T22:12:59.372Z,6.05
2023-01-13T22:15:28.200Z,6.06
2023-01-13T22:17:55.584Z,6.06
2023-01-13T22:20:23.067Z,6.04
2023-01-13T22:22:49.870Z,6.03
2023-01-13T22:25:17.242Z,6.04
2023-01-13T22:27:44.916Z,6.03
2023-01-13T22:30:24.992Z,6.03
2023-01-13T22:32:51.587Z,6.02
2023-01-13T22:35:18.149Z,6.02
2023-01-13T22:37:46.977Z,6.02
2023-01-13T22:40:13.667Z,5.99
2023-01-13T22:42:42.251Z,5.99
2023-01-13T22:45:11.928Z,5.99
2023-01-13T22:47:38.613Z,5.98
2023-01-13T22:50:06.179Z,5.97
2023-01-13T22:52:33.828Z,5.95
2023-01-13T22:55:00.849Z,5.95
2023-01-13T22:57:36.793Z,5.96
2023-01-13T23:00:14.830Z,5.95
2023-01-13T23:02:41.559Z,5.93
2023-01-13T23:05:08.391Z,5.92
2023-01-13T23:07:35.632Z,5.90
2023-01-13T23:10:02.895Z,5.91
2023-01-13T23:12:29.405Z,5.90
2023-01-13T23:14:55.976Z,5.92
2023-01-13T23:17:22.580Z,5.91
2023-01-13T23:19:49.108Z,5.92
2023-01-13T23:22:15.732Z,5.93
2023-01-13T23:24:42.401Z,5.95
2023-01-13T23:27:08.995Z,5.96
2023-01-13T23:29:35.789Z,5.98
2023-01-13T23:32:02.516Z,6.01
2023-01-13T23:34:28.951Z,6.01
2023-01-13T23:36:55.924Z,6.03
2023-01-13T23:39:22.548Z,6.02
2023-01-13T23:41:49.024Z,6.02
2023-01-13T23:44:16.310Z,6.04
2023-01-13T23:46:42.784Z,6.03
2023-01-13T23:49:09.240Z,6.04
2023-01-13T23:51:35.912Z,6.02
2023-01-13T23:54:02.556Z,6.03
2023-01-13T23:56:31.234Z,6.02
2023-01-13T23:58:57.995Z,6.02
